sensor_id;sensor_type;location;lat;lon;timestamp;P1;durP1;ratioP1;P2;durP2;ratioP2
31774;SDS011;66189;49.000;11.640;2023-02-28T09:24:27;50.20;;;21.45;;
31774;SDS011;66189;49.000;11.640;2023-02-28T09:26:28;15.25;;;8.38;;
31774;SDS011;66189;49.000;11.640;2023-02-28T09:28:28;15.30;;;8.52;;
31774;SDS011;66189;49.000;11.640;2023-02-28T09:30:29;12.30;;;8.23;;
31774;SDS011;66189;49.000;11.640;2023-02-28T09:32:30;16.67;;;8.07;;
31774;SDS011;66189;49.000;11.640;2023-02-28T09:34:31;15.75;;;8.38;;
31774;SDS011;66189;49.000;11.640;2023-02-28T09:36:31;12.10;;;7.43;;
31774;SDS011;66189;49.000;11.640;2023-02-28T09:38:33;12.70;;;7.15;;
31774;SDS011;66189;49.000;11.640;2023-02-28T09:40:38;11.93;;;7.50;;
31774;SDS011;66189;49.000;11.640;2023-02-28T09:42:46;14.43;;;8.10;;
31774;SDS011;66189;49.000;11.640;2023-02-28T09:44:48;14.55;;;8.13;;
31774;SDS011;66189;49.000;11.640;2023-02-28T09:46:51;11.10;;;7.13;;
31774;SDS011;66189;49.000;11.640;2023-02-28T09:48:56;16.75;;;7.38;;
31774;SDS011;66189;49.000;11.640;2023-02-28T09:51:02;14.05;;;7.82;;
31774;SDS011;66189;49.000;11.640;2023-02-28T09:53:15;17.23;;;7.88;;
31774;SDS011;66189;49.000;11.640;2023-02-28T10:06:29;14.55;;;7.70;;
31774;SDS011;66189;49.000;11.640;2023-02-28T10:09:00;15.10;;;7.60;;
31774;SDS011;66189;49.000;11.640;2023-02-28T10:10:58;14.30;;;7.80;;
31774;SDS011;66189;49.000;11.640;2023-02-28T10:13:02;14.93;;;8.27;;
31774;SDS011;66189;49.000;11.640;2023-02-28T10:15:07;12.05;;;7.22;;
31774;SDS011;66189;49.000;11.640;2023-02-28T10:17:19;12.30;;;7.50;;
31774;SDS011;66189;49.000;11.640;2023-02-28T10:24:02;13.73;;;7.63;;
31774;SDS011;66189;49.000;11.640;2023-02-28T10:26:19;15.18;;;7.85;;
31774;SDS011;66189;49.000;11.640;2023-02-28T10:28:19;12.50;;;7.25;;
31774;SDS011;66189;49.000;11.640;2023-02-28T10:30:20;14.27;;;7.43;;
31774;SDS011;66189;49.000;11.640;2023-02-28T10:32:21;12.88;;;7.45;;
31774;SDS011;66189;49.000;11.640;2023-02-28T10:34:28;14.15;;;7.00;;
31774;SDS011;66189;49.000;11.640;2023-02-28T10:36:29;16.60;;;7.60;;
31774;SDS011;66189;49.000;11.640;2023-02-28T10:38:34;12.57;;;7.40;;
31774;SDS011;66189;49.000;11.640;2023-02-28T10:40:38;13.88;;;8.52;;
31774;SDS011;66189;49.000;11.640;2023-02-28T10:42:38;16.02;;;7.72;;
31774;SDS011;66189;49.000;11.640;2023-02-28T10:44:39;13.52;;;7.95;;
31774;SDS011;66189;49.000;11.640;2023-02-28T10:46:40;13.85;;;7.90;;
31774;SDS011;66189;49.000;11.640;2023-02-28T10:52:52;14.65;;;8.40;;
31774;SDS011;66189;49.000;11.640;2023-02-28T10:54:53;15.48;;;8.55;;
31774;SDS011;66189;49.000;11.640;2023-02-28T10:59:30;14.45;;;8.73;;
31774;SDS011;66189;49.000;11.640;2023-02-28T11:03:42;14.45;;;7.25;;
31774;SDS011;66189;49.000;11.640;2023-02-28T11:05:43;15.15;;;8.15;;
31774;SDS011;66189;49.000;11.640;2023-02-28T11:07:44;14.65;;;7.68;;
31774;SDS011;66189;49.000;11.640;2023-02-28T11:09:54;14.35;;;8.43;;
31774;SDS011;66189;49.000;11.640;2023-02-28T11:11:56;13.80;;;7.65;;
31774;SDS011;66189;49.000;11.640;2023-02-28T11:14:04;15.98;;;8.77;;
31774;SDS011;66189;49.000;11.640;2023-02-28T11:16:06;14.50;;;8.25;;
31774;SDS011;66189;49.000;11.640;2023-02-28T11:22:24;17.58;;;8.30;;
31774;SDS011;66189;49.000;11.640;2023-02-28T11:24:30;12.80;;;7.80;;
31774;SDS011;66189;49.000;11.640;2023-02-28T11:26:34;14.05;;;7.95;;
31774;SDS011;66189;49.000;11.640;2023-02-28T11:28:38;14.00;;;8.77;;
31774;SDS011;66189;49.000;11.640;2023-02-28T11:30:41;17.17;;;8.10;;
31774;SDS011;66189;49.000;11.640;2023-02-28T11:32:47;12.50;;;7.63;;
31774;SDS011;66189;49.000;11.640;2023-02-28T11:35:13;13.50;;;7.50;;
31774;SDS011;66189;49.000;11.640;2023-02-28T11:37:22;15.05;;;8.07;;
31774;SDS011;66189;49.000;11.640;2023-02-28T11:39:24;14.13;;;8.38;;
31774;SDS011;66189;49.000;11.640;2023-02-28T11:43:42;16.73;;;8.73;;
31774;SDS011;66189;49.000;11.640;2023-02-28T11:50:31;18.20;;;9.93;;
31774;SDS011;66189;49.000;11.640;2023-02-28T11:52:52;13.82;;;8.30;;
31774;SDS011;66189;49.000;11.640;2023-02-28T11:57:28;13.27;;;8.13;;
31774;SDS011;66189;49.000;11.640;2023-02-28T11:59:46;12.75;;;8.60;;
31774;SDS011;66189;49.000;11.640;2023-02-28T12:02:00;16.63;;;8.50;;
31774;SDS011;66189;49.000;11.640;2023-02-28T12:13:48;21.10;;;12.23;;
31774;SDS011;66189;49.000;11.640;2023-02-28T12:16:17;15.38;;;8.82;;
31774;SDS011;66189;49.000;11.640;2023-02-28T12:25:58;18.92;;;8.15;;
31774;SDS011;66189;49.000;11.640;2023-02-28T12:28:09;16.52;;;8.63;;
31774;SDS011;66189;49.000;11.640;2023-02-28T12:32:30;13.00;;;8.27;;
31774;SDS011;66189;49.000;11.640;2023-02-28T12:34:41;15.00;;;7.57;;
31774;SDS011;66189;49.000;11.640;2023-02-28T12:36:46;12.52;;;8.15;;
31774;SDS011;66189;49.000;11.640;2023-02-28T12:38:51;15.57;;;8.93;;
31774;SDS011;66189;49.000;11.640;2023-02-28T12:40:59;14.48;;;9.73;;
31774;SDS011;66189;49.000;11.640;2023-02-28T12:43:03;13.07;;;8.48;;
31774;SDS011;66189;49.000;11.640;2023-02-28T12:45:13;15.73;;;9.38;;
31774;SDS011;66189;49.000;11.640;2023-02-28T12:47:18;48.28;;;25.35;;
31774;SDS011;66189;49.000;11.640;2023-02-28T12:49:27;16.30;;;10.10;;
31774;SDS011;66189;49.000;11.640;2023-02-28T12:51:33;14.88;;;9.52;;
31774;SDS011;66189;49.000;11.640;2023-02-28T12:56:19;16.08;;;9.07;;
31774;SDS011;66189;49.000;11.640;2023-02-28T13:00:34;15.05;;;8.75;;
31774;SDS011;66189;49.000;11.640;2023-02-28T13:09:20;16.85;;;9.25;;
31774;SDS011;66189;49.000;11.640;2023-02-28T13:13:28;14.10;;;9.27;;
31774;SDS011;66189;49.000;11.640;2023-02-28T13:15:30;16.83;;;8.93;;
31774;SDS011;66189;49.000;11.640;2023-02-28T13:17:35;15.40;;;8.77;;
31774;SDS011;66189;49.000;11.640;2023-02-28T13:19:36;14.70;;;8.82;;
31774;SDS011;66189;49.000;11.640;2023-02-28T13:21:41;15.95;;;9.75;;
31774;SDS011;66189;49.000;11.640;2023-02-28T13:25:50;16.90;;;8.30;;
31774;SDS011;66189;49.000;11.640;2023-02-28T13:27:53;16.15;;;9.48;;
31774;SDS011;66189;49.000;11.640;2023-02-28T13:29:56;14.73;;;8.35;;
31774;SDS011;66189;49.000;11.640;2023-02-28T13:32:40;15.15;;;8.82;;
31774;SDS011;66189;49.000;11.640;2023-02-28T13:36:42;21.17;;;12.23;;
31774;SDS011;66189;49.000;11.640;2023-02-28T13:38:49;15.63;;;9.10;;
31774;SDS011;66189;49.000;11.640;2023-02-28T13:40:55;17.52;;;8.95;;
31774;SDS011;66189;49.000;11.640;2023-02-28T13:42:55;16.55;;;9.05;;
31774;SDS011;66189;49.000;11.640;2023-02-28T13:51:38;13.80;;;8.82;;
31774;SDS011;66189;49.000;11.640;2023-02-28T13:56:01;14.23;;;8.40;;
31774;SDS011;66189;49.000;11.640;2023-02-28T14:05:27;16.00;;;9.02;;
31774;SDS011;66189;49.000;11.640;2023-02-28T14:07:33;15.38;;;9.38;;
31774;SDS011;66189;49.000;11.640;2023-02-28T14:09:45;12.70;;;8.03;;
31774;SDS011;66189;49.000;11.640;2023-02-28T14:11:49;16.25;;;8.93;;
31774;SDS011;66189;49.000;11.640;2023-02-28T14:13:50;17.13;;;9.45;;
31774;SDS011;66189;49.000;11.640;2023-02-28T14:15:55;14.63;;;9.40;;
31774;SDS011;66189;49.000;11.640;2023-02-28T14:17:56;17.90;;;9.15;;
31774;SDS011;66189;49.000;11.640;2023-02-28T14:19:59;14.60;;;9.02;;
31774;SDS011;66189;49.000;11.640;2023-02-28T14:22:29;16.05;;;9.35;;
31774;SDS011;66189;49.000;11.640;2023-02-28T14:27:12;13.77;;;8.43;;
31774;SDS011;66189;49.000;11.640;2023-02-28T14:31:34;13.52;;;8.68;;
31774;SDS011;66189;49.000;11.640;2023-02-28T14:34:30;13.18;;;8.00;;
31774;SDS011;66189;49.000;11.640;2023-02-28T14:36:23;16.17;;;9.15;;
31774;SDS011;66189;49.000;11.640;2023-02-28T14:38:46;15.65;;;8.55;;
31774;SDS011;66189;49.000;11.640;2023-02-28T14:40:54;14.68;;;8.98;;
31774;SDS011;66189;49.000;11.640;2023-02-28T14:42:57;14.50;;;9.02;;
31774;SDS011;66189;49.000;11.640;2023-02-28T14:45:00;18.15;;;9.32;;
31774;SDS011;66189;49.000;11.640;2023-02-28T14:47:02;14.75;;;9.45;;
31774;SDS011;66189;49.000;11.640;2023-02-28T14:49:06;14.02;;;8.48;;
31774;SDS011;66189;49.000;11.640;2023-02-28T14:51:13;13.57;;;8.00;;
31774;SDS011;66189;49.000;11.640;2023-02-28T14:53:21;14.00;;;8.98;;
31774;SDS011;66189;49.000;11.640;2023-02-28T14:55:24;13.43;;;8.60;;
31774;SDS011;66189;49.000;11.640;2023-02-28T14:57:35;15.23;;;8.73;;
31774;SDS011;66189;49.000;11.640;2023-02-28T14:59:40;13.30;;;8.57;;
31774;SDS011;66189;49.000;11.640;2023-02-28T15:01:40;16.05;;;8.18;;
31774;SDS011;66189;49.000;11.640;2023-02-28T15:03:41;16.38;;;8.95;;
31774;SDS011;66189;49.000;11.640;2023-02-28T15:05:51;14.27;;;8.55;;
31774;SDS011;66189;49.000;11.640;2023-02-28T15:12:23;13.10;;;8.07;;
31774;SDS011;66189;49.000;11.640;2023-02-28T15:14:25;13.23;;;8.15;;
31774;SDS011;66189;49.000;11.640;2023-02-28T15:16:37;14.65;;;8.93;;
31774;SDS011;66189;49.000;11.640;2023-02-28T15:19:23;13.65;;;8.35;;
31774;SDS011;66189;49.000;11.640;2023-02-28T15:21:08;15.30;;;8.05;;
31774;SDS011;66189;49.000;11.640;2023-02-28T15:23:13;14.35;;;7.80;;
31774;SDS011;66189;49.000;11.640;2023-02-28T15:25:17;13.60;;;7.90;;
31774;SDS011;66189;49.000;11.640;2023-02-28T15:27:21;15.80;;;8.85;;
31774;SDS011;66189;49.000;11.640;2023-02-28T15:29:24;14.23;;;8.15;;
31774;SDS011;66189;49.000;11.640;2023-02-28T15:31:28;14.52;;;7.82;;
31774;SDS011;66189;49.000;11.640;2023-02-28T15:33:32;17.33;;;9.75;;
31774;SDS011;66189;49.000;11.640;2023-02-28T15:35:33;15.68;;;8.95;;
31774;SDS011;66189;49.000;11.640;2023-02-28T15:39:58;15.75;;;8.85;;
31774;SDS011;66189;49.000;11.640;2023-02-28T15:42:12;13.60;;;8.00;;
31774;SDS011;66189;49.000;11.640;2023-02-28T15:44:28;15.48;;;9.10;;
31774;SDS011;66189;49.000;11.640;2023-02-28T15:46:34;12.52;;;7.72;;
31774;SDS011;66189;49.000;11.640;2023-02-28T15:48:35;14.73;;;8.00;;
31774;SDS011;66189;49.000;11.640;2023-02-28T15:50:43;14.07;;;8.00;;
31774;SDS011;66189;49.000;11.640;2023-02-28T15:52:44;14.18;;;9.07;;
31774;SDS011;66189;49.000;11.640;2023-02-28T15:54:46;18.05;;;9.52;;
31774;SDS011;66189;49.000;11.640;2023-02-28T15:56:49;20.08;;;9.10;;
31774;SDS011;66189;49.000;11.640;2023-02-28T15:58:53;14.98;;;8.80;;
31774;SDS011;66189;49.000;11.640;2023-02-28T16:01:06;14.93;;;8.55;;
31774;SDS011;66189;49.000;11.640;2023-02-28T16:03:23;22.60;;;13.27;;
31774;SDS011;66189;49.000;11.640;2023-02-28T16:05:28;13.23;;;8.35;;
31774;SDS011;66189;49.000;11.640;2023-02-28T16:07:33;14.10;;;7.95;;
31774;SDS011;66189;49.000;11.640;2023-02-28T16:09:34;17.92;;;9.02;;
31774;SDS011;66189;49.000;11.640;2023-02-28T16:11:37;16.58;;;8.88;;
31774;SDS011;66189;49.000;11.640;2023-02-28T16:13:41;15.32;;;9.15;;
31774;SDS011;66189;49.000;11.640;2023-02-28T16:15:42;13.93;;;8.25;;
31774;SDS011;66189;49.000;11.640;2023-02-28T16:17:43;24.48;;;11.98;;
31774;SDS011;66189;49.000;11.640;2023-02-28T16:19:45;111.68;;;43.22;;
31774;SDS011;66189;49.000;11.640;2023-02-28T16:21:45;274.90;;;104.28;;
31774;SDS011;66189;49.000;11.640;2023-02-28T16:23:46;54.58;;;30.05;;
31774;SDS011;66189;49.000;11.640;2023-02-28T16:25:47;21.40;;;11.35;;
31774;SDS011;66189;49.000;11.640;2023-02-28T16:27:49;18.25;;;11.50;;
31774;SDS011;66189;49.000;11.640;2023-02-28T16:29:53;129.75;;;54.50;;
31774;SDS011;66189;49.000;11.640;2023-02-28T16:31:54;55.80;;;28.25;;
31774;SDS011;66189;49.000;11.640;2023-02-28T16:33:55;23.42;;;13.95;;
31774;SDS011;66189;49.000;11.640;2023-02-28T16:35:55;24.45;;;14.18;;
31774;SDS011;66189;49.000;11.640;2023-02-28T16:37:56;25.08;;;13.07;;
31774;SDS011;66189;49.000;11.640;2023-02-28T16:39:56;37.10;;;18.55;;
31774;SDS011;66189;49.000;11.640;2023-02-28T16:41:57;22.90;;;14.38;;
31774;SDS011;66189;49.000;11.640;2023-02-28T16:43:58;28.67;;;18.13;;
31774;SDS011;66189;49.000;11.640;2023-02-28T16:46:00;23.05;;;15.30;;
31774;SDS011;66189;49.000;11.640;2023-02-28T16:48:01;21.40;;;11.65;;
31774;SDS011;66189;49.000;11.640;2023-02-28T16:50:04;26.98;;;15.13;;
31774;SDS011;66189;49.000;11.640;2023-02-28T16:54:13;36.95;;;21.95;;
31774;SDS011;66189;49.000;11.640;2023-02-28T16:56:15;25.13;;;14.45;;
31774;SDS011;66189;49.000;11.640;2023-02-28T16:58:18;21.23;;;12.02;;
31774;SDS011;66189;49.000;11.640;2023-02-28T17:00:21;26.50;;;13.25;;
31774;SDS011;66189;49.000;11.640;2023-02-28T17:02:22;18.17;;;10.18;;
31774;SDS011;66189;49.000;11.640;2023-02-28T17:04:23;24.40;;;11.90;;
31774;SDS011;66189;49.000;11.640;2023-02-28T17:06:26;22.80;;;12.05;;
31774;SDS011;66189;49.000;11.640;2023-02-28T17:08:30;23.08;;;13.18;;
31774;SDS011;66189;49.000;11.640;2023-02-28T17:10:32;20.02;;;11.85;;
31774;SDS011;66189;49.000;11.640;2023-02-28T17:12:32;22.00;;;11.48;;
31774;SDS011;66189;49.000;11.640;2023-02-28T17:14:32;21.27;;;12.20;;
31774;SDS011;66189;49.000;11.640;2023-02-28T17:16:33;52.58;;;28.10;;
31774;SDS011;66189;49.000;11.640;2023-02-28T17:18:36;23.42;;;12.70;;
31774;SDS011;66189;49.000;11.640;2023-02-28T17:20:38;28.38;;;15.55;;
31774;SDS011;66189;49.000;11.640;2023-02-28T17:22:39;24.63;;;13.32;;
31774;SDS011;66189;49.000;11.640;2023-02-28T17:24:39;23.33;;;11.85;;
31774;SDS011;66189;49.000;11.640;2023-02-28T17:26:40;18.50;;;10.65;;
31774;SDS011;66189;49.000;11.640;2023-02-28T17:28:41;23.52;;;12.45;;
31774;SDS011;66189;49.000;11.640;2023-02-28T17:30:42;20.60;;;12.25;;
31774;SDS011;66189;49.000;11.640;2023-02-28T17:32:47;23.75;;;12.07;;
31774;SDS011;66189;49.000;11.640;2023-02-28T17:34:47;21.77;;;11.98;;
31774;SDS011;66189;49.000;11.640;2023-02-28T17:36:48;22.23;;;12.52;;
31774;SDS011;66189;49.000;11.640;2023-02-28T17:38:50;22.25;;;12.30;;
31774;SDS011;66189;49.000;11.640;2023-02-28T17:40:52;21.48;;;12.00;;
31774;SDS011;66189;49.000;11.640;2023-02-28T17:42:57;22.88;;;13.18;;
31774;SDS011;66189;49.000;11.640;2023-02-28T17:44:58;20.63;;;12.27;;
31774;SDS011;66189;49.000;11.640;2023-02-28T17:46:59;20.70;;;11.90;;
31774;SDS011;66189;49.000;11.640;2023-02-28T17:49:00;25.58;;;13.13;;
31774;SDS011;66189;49.000;11.640;2023-02-28T17:51:01;25.17;;;11.77;;
31774;SDS011;66189;49.000;11.640;2023-02-28T17:53:01;20.88;;;12.57;;
31774;SDS011;66189;49.000;11.640;2023-02-28T17:55:02;21.95;;;12.23;;
31774;SDS011;66189;49.000;11.640;2023-02-28T17:57:04;19.88;;;11.55;;
31774;SDS011;66189;49.000;11.640;2023-02-28T17:59:04;19.98;;;11.80;;
31774;SDS011;66189;49.000;11.640;2023-02-28T18:01:05;22.90;;;11.93;;
31774;SDS011;66189;49.000;11.640;2023-02-28T18:03:05;21.67;;;11.77;;
31774;SDS011;66189;49.000;11.640;2023-02-28T18:07:08;44.00;;;22.10;;
31774;SDS011;66189;49.000;11.640;2023-02-28T18:09:12;58.65;;;27.48;;
31774;SDS011;66189;49.000;11.640;2023-02-28T18:11:22;29.92;;;13.52;;
31774;SDS011;66189;49.000;11.640;2023-02-28T18:13:26;29.40;;;13.27;;
31774;SDS011;66189;49.000;11.640;2023-02-28T18:15:27;24.75;;;13.63;;
31774;SDS011;66189;49.000;11.640;2023-02-28T18:17:28;26.10;;;14.07;;
31774;SDS011;66189;49.000;11.640;2023-02-28T18:19:28;25.42;;;14.13;;
31774;SDS011;66189;49.000;11.640;2023-02-28T18:21:29;27.38;;;13.73;;
31774;SDS011;66189;49.000;11.640;2023-02-28T18:23:29;25.40;;;13.57;;
31774;SDS011;66189;49.000;11.640;2023-02-28T18:25:30;25.60;;;13.70;;
31774;SDS011;66189;49.000;11.640;2023-02-28T18:27:31;24.90;;;14.65;;
31774;SDS011;66189;49.000;11.640;2023-02-28T18:29:33;22.55;;;13.20;;
31774;SDS011;66189;49.000;11.640;2023-02-28T18:31:34;26.65;;;13.48;;
31774;SDS011;66189;49.000;11.640;2023-02-28T18:33:37;28.45;;;13.73;;
31774;SDS011;66189;49.000;11.640;2023-02-28T18:35:37;23.60;;;12.98;;
31774;SDS011;66189;49.000;11.640;2023-02-28T18:37:38;26.15;;;13.32;;
31774;SDS011;66189;49.000;11.640;2023-02-28T18:39:38;25.55;;;14.65;;
31774;SDS011;66189;49.000;11.640;2023-02-28T18:41:39;25.20;;;13.70;;
31774;SDS011;66189;49.000;11.640;2023-02-28T18:43:40;30.73;;;16.50;;
31774;SDS011;66189;49.000;11.640;2023-02-28T18:45:41;28.05;;;13.80;;
31774;SDS011;66189;49.000;11.640;2023-02-28T18:47:41;26.60;;;13.82;;
31774;SDS011;66189;49.000;11.640;2023-02-28T18:49:41;26.45;;;14.27;;
31774;SDS011;66189;49.000;11.640;2023-02-28T18:51:42;28.02;;;14.57;;
31774;SDS011;66189;49.000;11.640;2023-02-28T18:53:45;31.75;;;14.98;;
31774;SDS011;66189;49.000;11.640;2023-02-28T18:55:46;28.15;;;14.32;;
31774;SDS011;66189;49.000;11.640;2023-02-28T18:57:46;27.42;;;13.80;;
31774;SDS011;66189;49.000;11.640;2023-02-28T18:59:47;28.98;;;14.50;;
31774;SDS011;66189;49.000;11.640;2023-02-28T19:01:47;28.67;;;14.95;;
31774;SDS011;66189;49.000;11.640;2023-02-28T19:03:48;31.25;;;15.73;;
31774;SDS011;66189;49.000;11.640;2023-02-28T19:05:53;23.70;;;14.07;;
31774;SDS011;66189;49.000;11.640;2023-02-28T19:07:54;28.30;;;14.48;;
31774;SDS011;66189;49.000;11.640;2023-02-28T19:09:54;26.30;;;14.60;;
31774;SDS011;66189;49.000;11.640;2023-02-28T19:11:55;46.72;;;23.17;;
31774;SDS011;66189;49.000;11.640;2023-02-28T19:13:58;135.82;;;62.75;;
31774;SDS011;66189;49.000;11.640;2023-02-28T19:16:02;47.42;;;22.65;;
31774;SDS011;66189;49.000;11.640;2023-02-28T19:18:04;30.65;;;15.30;;
31774;SDS011;66189;49.000;11.640;2023-02-28T19:20:05;30.48;;;15.00;;
31774;SDS011;66189;49.000;11.640;2023-02-28T19:22:07;31.58;;;15.98;;
31774;SDS011;66189;49.000;11.640;2023-02-28T19:24:07;30.33;;;15.85;;
31774;SDS011;66189;49.000;11.640;2023-02-28T19:26:08;33.20;;;15.85;;
31774;SDS011;66189;49.000;11.640;2023-02-28T19:28:10;28.20;;;15.48;;
31774;SDS011;66189;49.000;11.640;2023-02-28T19:30:10;32.10;;;15.77;;
31774;SDS011;66189;49.000;11.640;2023-02-28T19:32:11;29.65;;;15.02;;
31774;SDS011;66189;49.000;11.640;2023-02-28T19:34:12;31.52;;;15.95;;
31774;SDS011;66189;49.000;11.640;2023-02-28T19:36:13;32.78;;;15.93;;
31774;SDS011;66189;49.000;11.640;2023-02-28T19:38:14;34.20;;;15.90;;
31774;SDS011;66189;49.000;11.640;2023-02-28T19:40:15;32.28;;;15.68;;
31774;SDS011;66189;49.000;11.640;2023-02-28T19:42:16;35.25;;;15.75;;
31774;SDS011;66189;49.000;11.640;2023-02-28T19:44:17;32.08;;;16.48;;
31774;SDS011;66189;49.000;11.640;2023-02-28T19:46:17;32.53;;;16.20;;
31774;SDS011;66189;49.000;11.640;2023-02-28T19:48:19;28.02;;;14.98;;
31774;SDS011;66189;49.000;11.640;2023-02-28T19:50:24;31.30;;;16.35;;
31774;SDS011;66189;49.000;11.640;2023-02-28T19:52:24;31.02;;;17.23;;
31774;SDS011;66189;49.000;11.640;2023-02-28T19:54:25;32.70;;;15.98;;
31774;SDS011;66189;49.000;11.640;2023-02-28T19:56:26;30.52;;;16.98;;
31774;SDS011;66189;49.000;11.640;2023-02-28T19:58:27;32.42;;;16.92;;
31774;SDS011;66189;49.000;11.640;2023-02-28T20:00:27;32.05;;;17.83;;
31774;SDS011;66189;49.000;11.640;2023-02-28T20:02:27;35.72;;;18.23;;
31774;SDS011;66189;49.000;11.640;2023-02-28T20:04:28;33.45;;;17.48;;
31774;SDS011;66189;49.000;11.640;2023-02-28T20:06:30;34.97;;;17.13;;
31774;SDS011;66189;49.000;11.640;2023-02-28T20:08:31;57.03;;;29.52;;
31774;SDS011;66189;49.000;11.640;2023-02-28T20:10:33;41.50;;;21.85;;
31774;SDS011;66189;49.000;11.640;2023-02-28T20:12:34;39.08;;;18.60;;
31774;SDS011;66189;49.000;11.640;2023-02-28T20:14:34;31.88;;;16.73;;
31774;SDS011;66189;49.000;11.640;2023-02-28T20:16:35;37.28;;;17.02;;
31774;SDS011;66189;49.000;11.640;2023-02-28T20:18:36;36.60;;;17.42;;
31774;SDS011;66189;49.000;11.640;2023-02-28T20:20:38;35.70;;;17.38;;
31774;SDS011;66189;49.000;11.640;2023-02-28T20:22:40;31.08;;;16.63;;
31774;SDS011;66189;49.000;11.640;2023-02-28T20:24:41;37.60;;;18.10;;
31774;SDS011;66189;49.000;11.640;2023-02-28T20:26:41;30.77;;;16.80;;
31774;SDS011;66189;49.000;11.640;2023-02-28T20:28:42;31.98;;;17.25;;
31774;SDS011;66189;49.000;11.640;2023-02-28T20:30:43;33.38;;;17.42;;
31774;SDS011;66189;49.000;11.640;2023-02-28T20:32:47;33.05;;;17.38;;
31774;SDS011;66189;49.000;11.640;2023-02-28T20:34:50;35.42;;;17.15;;
31774;SDS011;66189;49.000;11.640;2023-02-28T20:36:51;41.85;;;19.65;;
31774;SDS011;66189;49.000;11.640;2023-02-28T20:38:55;40.97;;;22.80;;
31774;SDS011;66189;49.000;11.640;2023-02-28T20:40:59;42.17;;;22.45;;
31774;SDS011;66189;49.000;11.640;2023-02-28T20:43:00;40.45;;;19.45;;
31774;SDS011;66189;49.000;11.640;2023-02-28T20:45:01;39.53;;;19.70;;
31774;SDS011;66189;49.000;11.640;2023-02-28T20:47:02;39.88;;;20.73;;
31774;SDS011;66189;49.000;11.640;2023-02-28T20:49:03;43.40;;;23.38;;
31774;SDS011;66189;49.000;11.640;2023-02-28T20:51:04;46.20;;;22.52;;
31774;SDS011;66189;49.000;11.640;2023-02-28T20:53:05;32.47;;;18.42;;
31774;SDS011;66189;49.000;11.640;2023-02-28T20:55:06;41.97;;;18.50;;
31774;SDS011;66189;49.000;11.640;2023-02-28T20:57:07;36.83;;;19.05;;
31774;SDS011;66189;49.000;11.640;2023-02-28T20:59:09;33.83;;;17.23;;
31774;SDS011;66189;49.000;11.640;2023-02-28T21:01:11;36.75;;;18.60;;
31774;SDS011;66189;49.000;11.640;2023-02-28T21:03:16;57.45;;;26.83;;
31774;SDS011;66189;49.000;11.640;2023-02-28T21:05:17;90.25;;;44.00;;
31774;SDS011;66189;49.000;11.640;2023-02-28T21:07:17;60.53;;;29.67;;
31774;SDS011;66189;49.000;11.640;2023-02-28T21:09:18;114.18;;;54.35;;
31774;SDS011;66189;49.000;11.640;2023-02-28T21:11:21;89.32;;;43.60;;
31774;SDS011;66189;49.000;11.640;2023-02-28T21:13:23;94.97;;;43.15;;
31774;SDS011;66189;49.000;11.640;2023-02-28T21:15:25;72.70;;;36.80;;
31774;SDS011;66189;49.000;11.640;2023-02-28T21:17:27;64.00;;;32.28;;
31774;SDS011;66189;49.000;11.640;2023-02-28T21:19:28;81.00;;;38.05;;
31774;SDS011;66189;49.000;11.640;2023-02-28T21:21:28;89.38;;;41.42;;
31774;SDS011;66189;49.000;11.640;2023-02-28T21:23:33;141.40;;;63.53;;
31774;SDS011;66189;49.000;11.640;2023-02-28T21:25:34;91.50;;;42.08;;
31774;SDS011;66189;49.000;11.640;2023-02-28T21:27:34;98.30;;;42.13;;
31774;SDS011;66189;49.000;11.640;2023-02-28T21:29:35;65.13;;;33.85;;
31774;SDS011;66189;49.000;11.640;2023-02-28T21:31:36;48.97;;;25.17;;
31774;SDS011;66189;49.000;11.640;2023-02-28T21:33:37;53.33;;;24.70;;
31774;SDS011;66189;49.000;11.640;2023-02-28T21:35:37;46.35;;;23.73;;
31774;SDS011;66189;49.000;11.640;2023-02-28T21:37:38;45.95;;;22.85;;
31774;SDS011;66189;49.000;11.640;2023-02-28T21:39:38;41.03;;;22.70;;
31774;SDS011;66189;49.000;11.640;2023-02-28T21:41:39;39.65;;;20.98;;
31774;SDS011;66189;49.000;11.640;2023-02-28T21:43:41;38.47;;;20.25;;
31774;SDS011;66189;49.000;11.640;2023-02-28T21:45:42;35.58;;;19.00;;
31774;SDS011;66189;49.000;11.640;2023-02-28T21:47:42;38.83;;;19.17;;
31774;SDS011;66189;49.000;11.640;2023-02-28T21:49:43;35.53;;;19.77;;
31774;SDS011;66189;49.000;11.640;2023-02-28T21:51:43;36.28;;;19.02;;
31774;SDS011;66189;49.000;11.640;2023-02-28T21:53:44;42.42;;;21.45;;
31774;SDS011;66189;49.000;11.640;2023-02-28T21:55:44;44.75;;;21.88;;
31774;SDS011;66189;49.000;11.640;2023-02-28T21:57:45;48.80;;;26.52;;
31774;SDS011;66189;49.000;11.640;2023-02-28T21:59:45;61.15;;;30.15;;
31774;SDS011;66189;49.000;11.640;2023-02-28T22:01:47;59.90;;;29.75;;
31774;SDS011;66189;49.000;11.640;2023-02-28T22:03:49;55.60;;;28.45;;
31774;SDS011;66189;49.000;11.640;2023-02-28T22:05:51;57.10;;;28.38;;
31774;SDS011;66189;49.000;11.640;2023-02-28T22:07:52;56.03;;;28.40;;
31774;SDS011;66189;49.000;11.640;2023-02-28T22:09:52;51.20;;;25.92;;
31774;SDS011;66189;49.000;11.640;2023-02-28T22:11:52;51.63;;;26.70;;
31774;SDS011;66189;49.000;11.640;2023-02-28T22:13:54;48.47;;;24.67;;
31774;SDS011;66189;49.000;11.640;2023-02-28T22:16:00;56.35;;;27.15;;
31774;SDS011;66189;49.000;11.640;2023-02-28T22:18:11;61.78;;;28.25;;
31774;SDS011;66189;49.000;11.640;2023-02-28T22:20:11;63.35;;;29.27;;
31774;SDS011;66189;49.000;11.640;2023-02-28T22:22:12;75.28;;;34.92;;
31774;SDS011;66189;49.000;11.640;2023-02-28T22:24:12;64.95;;;30.33;;
31774;SDS011;66189;49.000;11.640;2023-02-28T22:26:14;59.85;;;26.67;;
31774;SDS011;66189;49.000;11.640;2023-02-28T22:28:18;241.80;;;98.20;;
31774;SDS011;66189;49.000;11.640;2023-02-28T22:30:19;107.60;;;45.83;;
31774;SDS011;66189;49.000;11.640;2023-02-28T22:32:20;59.28;;;28.63;;
31774;SDS011;66189;49.000;11.640;2023-02-28T22:34:20;54.58;;;26.63;;
31774;SDS011;66189;49.000;11.640;2023-02-28T22:36:21;61.85;;;29.00;;
31774;SDS011;66189;49.000;11.640;2023-02-28T22:38:22;54.92;;;26.27;;
31774;SDS011;66189;49.000;11.640;2023-02-28T22:40:22;51.97;;;26.17;;
31774;SDS011;66189;49.000;11.640;2023-02-28T22:42:23;49.88;;;25.35;;
31774;SDS011;66189;49.000;11.640;2023-02-28T22:44:23;65.10;;;30.35;;
31774;SDS011;66189;49.000;11.640;2023-02-28T22:46:24;56.67;;;29.13;;
31774;SDS011;66189;49.000;11.640;2023-02-28T22:48:27;51.00;;;24.23;;
31774;SDS011;66189;49.000;11.640;2023-02-28T22:50:27;37.63;;;20.48;;
31774;SDS011;66189;49.000;11.640;2023-02-28T22:52:27;46.38;;;21.70;;
31774;SDS011;66189;49.000;11.640;2023-02-28T22:54:28;50.63;;;22.30;;
31774;SDS011;66189;49.000;11.640;2023-02-28T22:56:28;49.05;;;24.75;;
31774;SDS011;66189;49.000;11.640;2023-02-28T22:58:29;43.92;;;22.35;;
31774;SDS011;66189;49.000;11.640;2023-02-28T23:00:30;97.35;;;40.92;;
31774;SDS011;66189;49.000;11.640;2023-02-28T23:02:31;81.25;;;34.17;;
31774;SDS011;66189;49.000;11.640;2023-02-28T23:04:31;57.42;;;26.80;;
31774;SDS011;66189;49.000;11.640;2023-02-28T23:06:33;54.33;;;24.23;;